sensor_id;sensor_type;location;lat;lon;timestamp;temperature;humidity
21815;DHT22;11069;48.988;8.450;2022-11-11T00:00:11;5.10;99.90
21815;DHT22;11069;48.988;8.450;2022-11-11T00:02:37;5.10;99.90
21815;DHT22;11069;48.988;8.450;2022-11-11T00:05:02;5.10;99.90
21815;DHT22;11069;48.988;8.450;2022-11-11T00:07:28;5.20;99.90
21815;DHT22;11069;48.988;8.450;2022-11-11T00:09:54;5.10;99.90
21815;DHT22;11069;48.988;8.450;2022-11-11T00:12:19;5.00;99.90
21815;DHT22;11069;48.988;8.450;2022-11-11T00:14:45;5.10;99.90
21815;DHT22;11069;48.988;8.450;2022-11-11T00:17:14;4.90;99.90
21815;DHT22;11069;48.988;8.450;2022-11-11T00:19:58;4.90;99.90
21815;DHT22;11069;48.988;8.450;2022-11-11T00:23:02;5.00;99.90
21815;DHT22;11069;48.988;8.450;2022-11-11T00:25:53;5.00;99.90
21815;DHT22;11069;48.988;8.450;2022-11-11T00:28:19;5.10;99.90
21815;DHT22;11069;48.988;8.450;2022-11-11T00:30:44;5.00;99.90
21815;DHT22;11069;48.988;8.450;2022-11-11T00:33:10;4.90;99.90
21815;DHT22;11069;48.988;8.450;2022-11-11T00:35:36;4.80;99.90
21815;DHT22;11069;48.988;8.450;2022-11-11T00:38:20;4.60;99.90
21815;DHT22;11069;48.988;8.450;2022-11-11T00:41:05;4.70;99.90
21815;DHT22;11069;48.988;8.450;2022-11-11T00:43:31;4.70;99.90
21815;DHT22;11069;48.988;8.450;2022-11-11T00:45:56;4.70;99.90
21815;DHT22;11069;48.988;8.450;2022-11-11T00:48:42;4.70;99.90
21815;DHT22;11069;48.988;8.450;2022-11-11T00:51:26;4.70;99.90
21815;DHT22;11069;48.988;8.450;2022-11-11T00:53:52;4.80;99.90
21815;DHT22;11069;48.988;8.450;2022-11-11T00:56:18;4.80;99.90
21815;DHT22;11069;48.988;8.450;2022-11-11T00:58:44;4.80;99.90
21815;DHT22;11069;48.988;8.450;2022-11-11T01:01:09;4.70;99.90
21815;DHT22;11069;48.988;8.450;2022-11-11T01:03:35;4.50;99.90
21815;DHT22;11069;48.988;8.450;2022-11-11T01:06:02;4.50;99.90
21815;DHT22;11069;48.988;8.450;2022-11-11T01:08:29;4.50;99.90
21815;DHT22;11069;48.988;8.450;2022-11-11T01:10:54;4.40;99.90
21815;DHT22;11069;48.988;8.450;2022-11-11T01:13:23;4.40;99.90
21815;DHT22;11069;48.988;8.450;2022-11-11T01:15:57;4.40;99.90
21815;DHT22;11069;48.988;8.450;2022-11-11T01:18:24;4.40;99.90
21815;DHT22;11069;48.988;8.450;2022-11-11T01:23:35;4.50;99.90
21815;DHT22;11069;48.988;8.450;2022-11-11T01:26:03;4.50;99.90
21815;DHT22;11069;48.988;8.450;2022-11-11T01:28:30;4.60;99.90
21815;DHT22;11069;48.988;8.450;2022-11-11T01:31:00;4.50;99.90
21815;DHT22;11069;48.988;8.450;2022-11-11T01:33:26;4.40;99.90
21815;DHT22;11069;48.988;8.450;2022-11-11T01:35:51;4.30;99.90
21815;DHT22;11069;48.988;8.450;2022-11-11T01:38:17;4.30;99.90
21815;DHT22;11069;48.988;8.450;2022-11-11T01:40:45;4.20;99.90
21815;DHT22;11069;48.988;8.450;2022-11-11T01:45:45;4.30;99.90
21815;DHT22;11069;48.988;8.450;2022-11-11T01:48:20;4.20;99.90
21815;DHT22;11069;48.988;8.450;2022-11-11T01:51:08;4.20;99.90
21815;DHT22;11069;48.988;8.450;2022-11-11T01:53:35;4.10;99.90
21815;DHT22;11069;48.988;8.450;2022-11-11T01:56:01;4.20;99.90
21815;DHT22;11069;48.988;8.450;2022-11-11T01:58:28;4.10;99.90
21815;DHT22;11069;48.988;8.450;2022-11-11T02:00:55;4.10;99.90
21815;DHT22;11069;48.988;8.450;2022-11-11T02:03:24;4.10;99.90
21815;DHT22;11069;48.988;8.450;2022-11-11T02:05:51;4.20;99.90
21815;DHT22;11069;48.988;8.450;2022-11-11T02:08:32;4.20;99.90
21815;DHT22;11069;48.988;8.450;2022-11-11T02:11:09;4.20;99.90
21815;DHT22;11069;48.988;8.450;2022-11-11T02:13:37;4.00;99.90
21815;DHT22;11069;48.988;8.450;2022-11-11T02:16:23;4.00;99.90
21815;DHT22;11069;48.988;8.450;2022-11-11T02:18:49;3.90;99.90
21815;DHT22;11069;48.988;8.450;2022-11-11T02:21:36;3.90;99.90
21815;DHT22;11069;48.988;8.450;2022-11-11T02:24:07;3.90;99.90
21815;DHT22;11069;48.988;8.450;2022-11-11T02:26:35;3.90;99.90
21815;DHT22;11069;48.988;8.450;2022-11-11T02:29:03;3.90;99.90
21815;DHT22;11069;48.988;8.450;2022-11-11T02:31:32;3.80;99.90
21815;DHT22;11069;48.988;8.450;2022-11-11T02:33:57;3.90;99.90
21815;DHT22;11069;48.988;8.450;2022-11-11T02:36:23;3.80;99.90
21815;DHT22;11069;48.988;8.450;2022-11-11T02:38:49;3.80;99.90
21815;DHT22;11069;48.988;8.450;2022-11-11T02:41:16;3.80;99.90
21815;DHT22;11069;48.988;8.450;2022-11-11T02:43:59;3.90;99.90
21815;DHT22;11069;48.988;8.450;2022-11-11T02:46:25;3.90;99.90
21815;DHT22;11069;48.988;8.450;2022-11-11T02:48:51;3.90;99.90
21815;DHT22;11069;48.988;8.450;2022-11-11T02:51:16;3.80;99.90
21815;DHT22;11069;48.988;8.450;2022-11-11T02:53:42;3.80;99.90
21815;DHT22;11069;48.988;8.450;2022-11-11T02:56:07;3.70;99.90
21815;DHT22;11069;48.988;8.450;2022-11-11T02:58:33;3.80;99.90
21815;DHT22;11069;48.988;8.450;2022-11-11T03:00:58;3.80;99.90
21815;DHT22;11069;48.988;8.450;2022-11-11T03:03:24;3.80;99.90
21815;DHT22;11069;48.988;8.450;2022-11-11T03:05:49;3.80;99.90
21815;DHT22;11069;48.988;8.450;2022-11-11T03:08:15;3.70;99.90
21815;DHT22;11069;48.988;8.450;2022-11-11T03:10:41;3.70;99.90
21815;DHT22;11069;48.988;8.450;2022-11-11T03:13:06;3.60;99.90
21815;DHT22;11069;48.988;8.450;2022-11-11T03:15:32;3.70;99.90
21815;DHT22;11069;48.988;8.450;2022-11-11T03:17:57;3.70;99.90
21815;DHT22;11069;48.988;8.450;2022-11-11T03:20:23;3.70;99.90
21815;DHT22;11069;48.988;8.450;2022-11-11T03:23:10;3.70;99.90
21815;DHT22;11069;48.988;8.450;2022-11-11T03:25:47;3.80;99.90
21815;DHT22;11069;48.988;8.450;2022-11-11T03:28:13;3.80;99.90
21815;DHT22;11069;48.988;8.450;2022-11-11T03:30:41;3.90;99.90
21815;DHT22;11069;48.988;8.450;2022-11-11T03:33:08;3.80;99.90
21815;DHT22;11069;48.988;8.450;2022-11-11T03:35:34;3.80;99.90
21815;DHT22;11069;48.988;8.450;2022-11-11T03:38:00;3.80;99.90
21815;DHT22;11069;48.988;8.450;2022-11-11T03:40:49;3.90;99.90
21815;DHT22;11069;48.988;8.450;2022-11-11T03:43:16;3.90;99.90
21815;DHT22;11069;48.988;8.450;2022-11-11T03:45:43;4.00;99.90
21815;DHT22;11069;48.988;8.450;2022-11-11T03:48:09;4.10;99.90
21815;DHT22;11069;48.988;8.450;2022-11-11T03:50:35;4.10;99.90
21815;DHT22;11069;48.988;8.450;2022-11-11T03:53:01;4.20;99.90
21815;DHT22;11069;48.988;8.450;2022-11-11T03:55:27;4.30;99.90
21815;DHT22;11069;48.988;8.450;2022-11-11T03:57:53;4.50;99.90
21815;DHT22;11069;48.988;8.450;2022-11-11T04:00:24;4.60;99.90
21815;DHT22;11069;48.988;8.450;2022-11-11T04:02:55;4.70;99.90
21815;DHT22;11069;48.988;8.450;2022-11-11T04:05:44;4.80;99.90
21815;DHT22;11069;48.988;8.450;2022-11-11T04:08:28;4.80;99.90
21815;DHT22;11069;48.988;8.450;2022-11-11T04:11:14;5.00;99.90
21815;DHT22;11069;48.988;8.450;2022-11-11T04:13:43;5.00;99.90
21815;DHT22;11069;48.988;8.450;2022-11-11T04:16:28;5.00;99.90
21815;DHT22;11069;48.988;8.450;2022-11-11T04:18:54;5.10;99.90
21815;DHT22;11069;48.988;8.450;2022-11-11T04:21:38;5.20;99.90
21815;DHT22;11069;48.988;8.450;2022-11-11T04:24:14;5.20;99.90
21815;DHT22;11069;48.988;8.450;2022-11-11T04:27:01;5.20;99.90
21815;DHT22;11069;48.988;8.450;2022-11-11T04:29:27;5.30;99.90
21815;DHT22;11069;48.988;8.450;2022-11-11T04:32:11;5.40;99.90
21815;DHT22;11069;48.988;8.450;2022-11-11T04:34:58;5.40;99.90
21815;DHT22;11069;48.988;8.450;2022-11-11T04:37:25;5.40;99.90
21815;DHT22;11069;48.988;8.450;2022-11-11T04:39:51;5.40;99.90
21815;DHT22;11069;48.988;8.450;2022-11-11T04:42:35;5.50;99.90
21815;DHT22;11069;48.988;8.450;2022-11-11T04:45:02;5.60;99.90
21815;DHT22;11069;48.988;8.450;2022-11-11T04:50:35;5.70;99.90
21815;DHT22;11069;48.988;8.450;2022-11-11T04:53:02;5.80;99.90
21815;DHT22;11069;48.988;8.450;2022-11-11T04:55:28;5.80;99.90
21815;DHT22;11069;48.988;8.450;2022-11-11T04:58:13;5.90;99.90
21815;DHT22;11069;48.988;8.450;2022-11-11T05:00:39;5.90;99.90
21815;DHT22;11069;48.988;8.450;2022-11-11T05:03:05;5.90;99.90
21815;DHT22;11069;48.988;8.450;2022-11-11T05:08:31;6.00;99.90
21815;DHT22;11069;48.988;8.450;2022-11-11T05:11:16;6.00;99.90
21815;DHT22;11069;48.988;8.450;2022-11-11T05:13:41;6.00;99.90
21815;DHT22;11069;48.988;8.450;2022-11-11T05:16:28;5.90;99.90
21815;DHT22;11069;48.988;8.450;2022-11-11T05:19:14;5.90;99.90
21815;DHT22;11069;48.988;8.450;2022-11-11T05:25:03;5.90;99.90
21815;DHT22;11069;48.988;8.450;2022-11-11T05:27:48;5.90;99.90
21815;DHT22;11069;48.988;8.450;2022-11-11T05:30:14;5.80;99.90
21815;DHT22;11069;48.988;8.450;2022-11-11T05:32:41;5.80;99.90
21815;DHT22;11069;48.988;8.450;2022-11-11T05:35:07;5.80;99.90
21815;DHT22;11069;48.988;8.450;2022-11-11T05:37:33;5.80;99.90
21815;DHT22;11069;48.988;8.450;2022-11-11T05:39:59;5.80;99.90
21815;DHT22;11069;48.988;8.450;2022-11-11T05:42:25;5.80;99.90
21815;DHT22;11069;48.988;8.450;2022-11-11T05:44:50;5.80;99.90
21815;DHT22;11069;48.988;8.450;2022-11-11T05:47:16;5.90;99.90
21815;DHT22;11069;48.988;8.450;2022-11-11T05:49:42;5.80;99.90
21815;DHT22;11069;48.988;8.450;2022-11-11T05:52:09;5.80;99.90
21815;DHT22;11069;48.988;8.450;2022-11-11T05:54:38;5.80;99.90
21815;DHT22;11069;48.988;8.450;2022-11-11T05:57:04;5.70;99.90
21815;DHT22;11069;48.988;8.450;2022-11-11T05:59:30;5.60;99.90
21815;DHT22;11069;48.988;8.450;2022-11-11T06:01:56;5.50;99.90
21815;DHT22;11069;48.988;8.450;2022-11-11T06:04:22;5.60;99.90
21815;DHT22;11069;48.988;8.450;2022-11-11T06:06:48;5.60;99.90
21815;DHT22;11069;48.988;8.450;2022-11-11T06:09:13;5.50;99.90
21815;DHT22;11069;48.988;8.450;2022-11-11T06:11:39;5.40;99.90
21815;DHT22;11069;48.988;8.450;2022-11-11T06:14:05;5.30;99.90
21815;DHT22;11069;48.988;8.450;2022-11-11T06:16:31;5.20;99.90
21815;DHT22;11069;48.988;8.450;2022-11-11T06:18:56;5.20;99.90
21815;DHT22;11069;48.988;8.450;2022-11-11T06:21:48;5.20;99.90
21815;DHT22;11069;48.988;8.450;2022-11-11T06:24:23;5.20;99.90
21815;DHT22;11069;48.988;8.450;2022-11-11T06:26:49;5.30;99.90
21815;DHT22;11069;48.988;8.450;2022-11-11T06:29:14;5.40;99.90
21815;DHT22;11069;48.988;8.450;2022-11-11T06:31:40;5.40;99.90
21815;DHT22;11069;48.988;8.450;2022-11-11T06:34:06;5.50;99.90
21815;DHT22;11069;48.988;8.450;2022-11-11T06:36:32;5.40;99.90
21815;DHT22;11069;48.988;8.450;2022-11-11T06:38:57;5.40;99.90
21815;DHT22;11069;48.988;8.450;2022-11-11T06:41:23;5.40;99.90
21815;DHT22;11069;48.988;8.450;2022-11-11T06:43:50;5.40;99.90
21815;DHT22;11069;48.988;8.450;2022-11-11T06:46:22;5.30;99.90
21815;DHT22;11069;48.988;8.450;2022-11-11T06:48:48;5.40;99.90
21815;DHT22;11069;48.988;8.450;2022-11-11T06:51:14;5.40;99.90
21815;DHT22;11069;48.988;8.450;2022-11-11T06:53:40;5.40;99.90
21815;DHT22;11069;48.988;8.450;2022-11-11T06:56:06;5.40;99.90
21815;DHT22;11069;48.988;8.450;2022-11-11T06:58:33;5.50;99.90
21815;DHT22;11069;48.988;8.450;2022-11-11T07:00:58;5.60;99.90
21815;DHT22;11069;48.988;8.450;2022-11-11T07:03:28;5.50;99.90
21815;DHT22;11069;48.988;8.450;2022-11-11T07:05:53;5.50;99.90
21815;DHT22;11069;48.988;8.450;2022-11-11T07:08:19;5.50;99.90
21815;DHT22;11069;48.988;8.450;2022-11-11T07:10:47;5.50;99.90
21815;DHT22;11069;48.988;8.450;2022-11-11T07:13:14;5.50;99.90
21815;DHT22;11069;48.988;8.450;2022-11-11T07:15:41;5.60;99.90
21815;DHT22;11069;48.988;8.450;2022-11-11T07:18:07;5.60;99.90
21815;DHT22;11069;48.988;8.450;2022-11-11T07:20:33;5.60;99.90
21815;DHT22;11069;48.988;8.450;2022-11-11T07:22:59;5.70;99.90
21815;DHT22;11069;48.988;8.450;2022-11-11T07:25:24;5.90;99.90
21815;DHT22;11069;48.988;8.450;2022-11-11T07:27:50;5.80;99.90
21815;DHT22;11069;48.988;8.450;2022-11-11T07:30:16;5.80;99.90
21815;DHT22;11069;48.988;8.450;2022-11-11T07:32:46;5.70;99.90
21815;DHT22;11069;48.988;8.450;2022-11-11T07:35:12;5.70;99.90
21815;DHT22;11069;48.988;8.450;2022-11-11T07:37:42;5.60;99.90
21815;DHT22;11069;48.988;8.450;2022-11-11T07:40:09;5.60;99.90
21815;DHT22;11069;48.988;8.450;2022-11-11T07:42:36;5.60;99.90
21815;DHT22;11069;48.988;8.450;2022-11-11T07:45:02;5.80;99.90
21815;DHT22;11069;48.988;8.450;2022-11-11T07:47:28;5.90;99.90
21815;DHT22;11069;48.988;8.450;2022-11-11T07:49:53;6.10;99.90
21815;DHT22;11069;48.988;8.450;2022-11-11T07:52:19;6.20;99.90
21815;DHT22;11069;48.988;8.450;2022-11-11T07:54:48;6.20;99.90
21815;DHT22;11069;48.988;8.450;2022-11-11T07:57:14;6.30;99.90
21815;DHT22;11069;48.988;8.450;2022-11-11T07:59:39;6.30;99.90
21815;DHT22;11069;48.988;8.450;2022-11-11T08:02:10;6.40;99.90
21815;DHT22;11069;48.988;8.450;2022-11-11T08:04:36;6.50;99.90
21815;DHT22;11069;48.988;8.450;2022-11-11T08:07:02;6.40;99.90
21815;DHT22;11069;48.988;8.450;2022-11-11T08:09:28;6.20;99.90
21815;DHT22;11069;48.988;8.450;2022-11-11T08:11:54;6.30;99.90
21815;DHT22;11069;48.988;8.450;2022-11-11T08:14:38;6.30;99.90
21815;DHT22;11069;48.988;8.450;2022-11-11T08:17:03;6.30;99.90
21815;DHT22;11069;48.988;8.450;2022-11-11T08:19:29;6.30;99.90
21815;DHT22;11069;48.988;8.450;2022-11-11T08:21:55;6.40;99.90
21815;DHT22;11069;48.988;8.450;2022-11-11T08:24:20;6.50;99.90
21815;DHT22;11069;48.988;8.450;2022-11-11T08:26:47;6.60;99.90
21815;DHT22;11069;48.988;8.450;2022-11-11T08:29:12;6.60;99.90
21815;DHT22;11069;48.988;8.450;2022-11-11T08:31:38;6.70;99.90
21815;DHT22;11069;48.988;8.450;2022-11-11T08:34:05;6.60;99.90
21815;DHT22;11069;48.988;8.450;2022-11-11T08:36:30;6.50;99.90
21815;DHT22;11069;48.988;8.450;2022-11-11T08:38:56;6.50;99.90
21815;DHT22;11069;48.988;8.450;2022-11-11T08:41:22;6.50;99.90
21815;DHT22;11069;48.988;8.450;2022-11-11T08:43:54;6.50;99.90
21815;DHT22;11069;48.988;8.450;2022-11-11T08:46:20;6.50;99.90
21815;DHT22;11069;48.988;8.450;2022-11-11T08:48:46;6.50;99.90
21815;DHT22;11069;48.988;8.450;2022-11-11T08:51:13;6.50;99.90
21815;DHT22;11069;48.988;8.450;2022-11-11T08:53:39;6.70;99.90
21815;DHT22;11069;48.988;8.450;2022-11-11T08:56:04;6.80;99.90
21815;DHT22;11069;48.988;8.450;2022-11-11T08:58:31;7.10;99.90
21815;DHT22;11069;48.988;8.450;2022-11-11T09:00:56;7.10;99.90
21815;DHT22;11069;48.988;8.450;2022-11-11T09:03:22;7.20;99.90
21815;DHT22;11069;48.988;8.450;2022-11-11T09:05:48;7.30;99.90
21815;DHT22;11069;48.988;8.450;2022-11-11T09:08:14;7.50;99.90
21815;DHT22;11069;48.988;8.450;2022-11-11T09:10:40;7.60;99.90
21815;DHT22;11069;48.988;8.450;2022-11-11T09:13:06;7.60;99.90
21815;DHT22;11069;48.988;8.450;2022-11-11T09:15:32;7.60;99.90
21815;DHT22;11069;48.988;8.450;2022-11-11T09:17:58;7.50;99.90
21815;DHT22;11069;48.988;8.450;2022-11-11T09:20:24;7.80;99.90
21815;DHT22;11069;48.988;8.450;2022-11-11T09:22:50;8.20;99.90
21815;DHT22;11069;48.988;8.450;2022-11-11T09:25:17;8.40;99.90
21815;DHT22;11069;48.988;8.450;2022-11-11T09:27:43;8.20;99.90
21815;DHT22;11069;48.988;8.450;2022-11-11T09:30:10;8.00;99.90
21815;DHT22;11069;48.988;8.450;2022-11-11T09:32:36;8.20;99.90
21815;DHT22;11069;48.988;8.450;2022-11-11T09:35:02;8.40;99.90
21815;DHT22;11069;48.988;8.450;2022-11-11T09:37:28;8.50;99.90
21815;DHT22;11069;48.988;8.450;2022-11-11T09:39:54;8.30;99.90
21815;DHT22;11069;48.988;8.450;2022-11-11T09:42:42;8.20;99.90
21815;DHT22;11069;48.988;8.450;2022-11-11T09:45:33;8.30;99.90
21815;DHT22;11069;48.988;8.450;2022-11-11T09:48:26;8.60;99.90
21815;DHT22;11069;48.988;8.450;2022-11-11T09:50:57;8.60;99.90
21815;DHT22;11069;48.988;8.450;2022-11-11T09:53:35;8.80;99.90
21815;DHT22;11069;48.988;8.450;2022-11-11T09:56:07;8.80;99.90
21815;DHT22;11069;48.988;8.450;2022-11-11T09:58:38;8.80;99.90
21815;DHT22;11069;48.988;8.450;2022-11-11T10:01:21;8.70;99.90
21815;DHT22;11069;48.988;8.450;2022-11-11T10:03:59;8.70;99.90
21815;DHT22;11069;48.988;8.450;2022-11-11T10:06:32;8.80;99.90
21815;DHT22;11069;48.988;8.450;2022-11-11T10:09:00;8.80;99.90
21815;DHT22;11069;48.988;8.450;2022-11-11T10:11:53;9.00;99.90
21815;DHT22;11069;48.988;8.450;2022-11-11T10:14:22;9.20;99.90
21815;DHT22;11069;48.988;8.450;2022-11-11T10:17:06;9.10;99.90
21815;DHT22;11069;48.988;8.450;2022-11-11T10:22:34;9.10;99.90
21815;DHT22;11069;48.988;8.450;2022-11-11T10:27:28;9.20;99.90
21815;DHT22;11069;48.988;8.450;2022-11-11T10:29:55;9.40;99.90
21815;DHT22;11069;48.988;8.450;2022-11-11T10:32:31;9.50;99.90
21815;DHT22;11069;48.988;8.450;2022-11-11T10:35:14;9.70;99.90
21815;DHT22;11069;48.988;8.450;2022-11-11T10:37:41;9.50;99.90
21815;DHT22;11069;48.988;8.450;2022-11-11T10:40:24;9.30;99.90
21815;DHT22;11069;48.988;8.450;2022-11-11T10:42:53;9.00;99.90
21815;DHT22;11069;48.988;8.450;2022-11-11T10:48:04;8.70;99.90
21815;DHT22;11069;48.988;8.450;2022-11-11T10:50:40;8.50;99.90
21815;DHT22;11069;48.988;8.450;2022-11-11T10:55:46;8.50;99.90
21815;DHT22;11069;48.988;8.450;2022-11-11T11:01:37;9.20;99.90
21815;DHT22;11069;48.988;8.450;2022-11-11T11:04:13;9.40;99.90
21815;DHT22;11069;48.988;8.450;2022-11-11T11:06:43;9.50;99.90
21815;DHT22;11069;48.988;8.450;2022-11-11T11:14:53;9.70;99.90
21815;DHT22;11069;48.988;8.450;2022-11-11T11:17:21;9.30;99.90
21815;DHT22;11069;48.988;8.450;2022-11-11T11:25:16;9.60;99.90
21815;DHT22;11069;48.988;8.450;2022-11-11T11:27:43;9.50;99.90
21815;DHT22;11069;48.988;8.450;2022-11-11T11:30:20;9.70;99.90
21815;DHT22;11069;48.988;8.450;2022-11-11T11:32:59;9.80;99.90
21815;DHT22;11069;48.988;8.450;2022-11-11T11:37:58;9.80;99.90
21815;DHT22;11069;48.988;8.450;2022-11-11T11:40:23;9.90;99.90
21815;DHT22;11069;48.988;8.450;2022-11-11T11:42:49;9.80;99.90
21815;DHT22;11069;48.988;8.450;2022-11-11T11:45:22;9.80;99.90
21815;DHT22;11069;48.988;8.450;2022-11-11T11:48:09;9.90;99.90
21815;DHT22;11069;48.988;8.450;2022-11-11T11:56:40;10.10;99.90
21815;DHT22;11069;48.988;8.450;2022-11-11T12:02:20;10.00;99.90
21815;DHT22;11069;48.988;8.450;2022-11-11T12:07:33;9.60;99.90
21815;DHT22;11069;48.988;8.450;2022-11-11T12:35:13;10.90;99.90
21815;DHT22;11069;48.988;8.450;2022-11-11T12:40:59;10.60;99.90
21815;DHT22;11069;48.988;8.450;2022-11-11T12:43:49;10.60;99.90
21815;DHT22;11069;48.988;8.450;2022-11-11T12:46:31;10.50;99.90
21815;DHT22;11069;48.988;8.450;2022-11-11T12:57:27;10.50;99.90
21815;DHT22;11069;48.988;8.450;2022-11-11T13:08:11;10.20;99.90
21815;DHT22;11069;48.988;8.450;2022-11-11T13:10:51;10.30;99.90
21815;DHT22;11069;48.988;8.450;2022-11-11T13:16:15;10.20;99.90
21815;DHT22;11069;48.988;8.450;2022-11-11T13:21:12;10.30;99.90
21815;DHT22;11069;48.988;8.450;2022-11-11T13:23:40;10.30;99.90
21815;DHT22;11069;48.988;8.450;2022-11-11T13:26:57;10.20;99.90
21815;DHT22;11069;48.988;8.450;2022-11-11T13:29:31;10.20;99.90
21815;DHT22;11069;48.988;8.450;2022-11-11T13:32:02;10.50;99.90
21815;DHT22;11069;48.988;8.450;2022-11-11T13:34:31;10.50;99.90
21815;DHT22;11069;48.988;8.450;2022-11-11T13:37:02;10.40;99.90
21815;DHT22;11069;48.988;8.450;2022-11-11T13:39:37;10.00;99.90
21815;DHT22;11069;48.988;8.450;2022-11-11T13:42:04;9.80;99.90
21815;DHT22;11069;48.988;8.450;2022-11-11T13:44:38;9.70;99.90
21815;DHT22;11069;48.988;8.450;2022-11-11T13:47:20;9.60;99.90
21815;DHT22;11069;48.988;8.450;2022-11-11T13:49:53;9.60;99.90
21815;DHT22;11069;48.988;8.450;2022-11-11T13:52:25;9.60;99.90
21815;DHT22;11069;48.988;8.450;2022-11-11T13:55:03;9.40;99.90
21815;DHT22;11069;48.988;8.450;2022-11-11T13:57:31;9.40;99.90
21815;DHT22;11069;48.988;8.450;2022-11-11T14:02:47;9.10;99.90
21815;DHT22;11069;48.988;8.450;2022-11-11T14:05:33;9.00;99.90
21815;DHT22;11069;48.988;8.450;2022-11-11T14:07:58;8.90;99.90
21815;DHT22;11069;48.988;8.450;2022-11-11T14:12:54;8.90;99.90
21815;DHT22;11069;48.988;8.450;2022-11-11T14:18:26;8.90;99.90
21815;DHT22;11069;48.988;8.450;2022-11-11T14:20:55;9.00;99.90
21815;DHT22;11069;48.988;8.450;2022-11-11T14:23:39;9.00;99.90
21815;DHT22;11069;48.988;8.450;2022-11-11T14:28:32;8.80;99.90
21815;DHT22;11069;48.988;8.450;2022-11-11T14:33:54;8.90;99.90
21815;DHT22;11069;48.988;8.450;2022-11-11T14:42:02;8.90;99.90
21815;DHT22;11069;48.988;8.450;2022-11-11T14:49:50;8.90;99.90
21815;DHT22;11069;48.988;8.450;2022-11-11T14:52:40;8.90;99.90
21815;DHT22;11069;48.988;8.450;2022-11-11T15:00:20;8.70;99.90
21815;DHT22;11069;48.988;8.450;2022-11-11T15:03:11;8.80;99.90
21815;DHT22;11069;48.988;8.450;2022-11-11T15:06:33;8.90;99.90
21815;DHT22;11069;48.988;8.450;2022-11-11T15:11:38;8.80;99.90
21815;DHT22;11069;48.988;8.450;2022-11-11T15:37:01;8.60;99.90
21815;DHT22;11069;48.988;8.450;2022-11-11T15:39:48;8.60;99.90
21815;DHT22;11069;48.988;8.450;2022-11-11T15:44:53;8.40;99.90
21815;DHT22;11069;48.988;8.450;2022-11-11T15:47:20;8.30;99.90
21815;DHT22;11069;48.988;8.450;2022-11-11T15:49:48;8.30;99.90
21815;DHT22;11069;48.988;8.450;2022-11-11T15:52:29;8.20;99.90
21815;DHT22;11069;48.988;8.450;2022-11-11T15:54:56;8.30;99.90
21815;DHT22;11069;48.988;8.450;2022-11-11T15:57:29;8.30;99.90
21815;DHT22;11069;48.988;8.450;2022-11-11T15:59:56;8.30;99.90
21815;DHT22;11069;48.988;8.450;2022-11-11T16:02:25;8.30;99.90
21815;DHT22;11069;48.988;8.450;2022-11-11T16:04:57;8.20;99.90
21815;DHT22;11069;48.988;8.450;2022-11-11T16:07:33;8.20;99.90
21815;DHT22;11069;48.988;8.450;2022-11-11T16:10:07;8.20;99.90
21815;DHT22;11069;48.988;8.450;2022-11-11T16:15:40;8.20;99.90
21815;DHT22;11069;48.988;8.450;2022-11-11T16:18:19;8.20;99.90
21815;DHT22;11069;48.988;8.450;2022-11-11T16:23:19;8.30;99.90
21815;DHT22;11069;48.988;8.450;2022-11-11T16:25:47;8.20;99.90
21815;DHT22;11069;48.988;8.450;2022-11-11T16:28:13;8.20;99.90
21815;DHT22;11069;48.988;8.450;2022-11-11T16:30:40;8.20;99.90
21815;DHT22;11069;48.988;8.450;2022-11-11T16:35:52;8.30;99.90
21815;DHT22;11069;48.988;8.450;2022-11-11T16:38:33;8.30;99.90
21815;DHT22;11069;48.988;8.450;2022-11-11T16:40:59;8.30;99.90
21815;DHT22;11069;48.988;8.450;2022-11-11T16:43:31;8.20;99.90
21815;DHT22;11069;48.988;8.450;2022-11-11T16:46:02;8.30;99.90
21815;DHT22;11069;48.988;8.450;2022-11-11T16:51:05;8.20;99.90
21815;DHT22;11069;48.988;8.450;2022-11-11T16:53:36;8.20;99.90
21815;DHT22;11069;48.988;8.450;2022-11-11T16:56:05;8.20;99.90
21815;DHT22;11069;48.988;8.450;2022-11-11T16:58:32;8.20;99.90
21815;DHT22;11069;48.988;8.450;2022-11-11T17:01:05;8.20;99.90
21815;DHT22;11069;48.988;8.450;2022-11-11T17:03:30;8.20;99.90
21815;DHT22;11069;48.988;8.450;2022-11-11T17:06:02;8.10;99.90
21815;DHT22;11069;48.988;8.450;2022-11-11T17:08:39;8.10;99.90
21815;DHT22;11069;48.988;8.450;2022-11-11T17:14:06;8.10;99.90
21815;DHT22;11069;48.988;8.450;2022-11-11T17:16:31;8.10;99.90
21815;DHT22;11069;48.988;8.450;2022-11-11T17:19:01;8.00;99.90
21815;DHT22;11069;48.988;8.450;2022-11-11T17:21:27;8.10;99.90
21815;DHT22;11069;48.988;8.450;2022-11-11T17:23:53;8.10;99.90
21815;DHT22;11069;48.988;8.450;2022-11-11T17:26:18;8.20;99.90
21815;DHT22;11069;48.988;8.450;2022-11-11T17:28:44;8.20;99.90
21815;DHT22;11069;48.988;8.450;2022-11-11T17:31:11;8.10;99.90
21815;DHT22;11069;48.988;8.450;2022-11-11T17:33:37;8.10;99.90
21815;DHT22;11069;48.988;8.450;2022-11-11T17:36:03;8.00;99.90
21815;DHT22;11069;48.988;8.450;2022-11-11T17:38:34;7.90;99.90
21815;DHT22;11069;48.988;8.450;2022-11-11T17:41:00;7.90;99.90
21815;DHT22;11069;48.988;8.450;2022-11-11T17:43:26;7.90;99.90
21815;DHT22;11069;48.988;8.450;2022-11-11T17:45:52;8.00;99.90
21815;DHT22;11069;48.988;8.450;2022-11-11T17:48:18;7.90;99.90
21815;DHT22;11069;48.988;8.450;2022-11-11T17:50:44;7.90;99.90
21815;DHT22;11069;48.988;8.450;2022-11-11T17:53:10;7.90;99.90
21815;DHT22;11069;48.988;8.450;2022-11-11T17:55:35;7.80;99.90
21815;DHT22;11069;48.988;8.450;2022-11-11T17:58:01;7.80;99.90
21815;DHT22;11069;48.988;8.450;2022-11-11T18:00:27;7.80;99.90
21815;DHT22;11069;48.988;8.450;2022-11-11T18:02:53;7.80;99.90
21815;DHT22;11069;48.988;8.450;2022-11-11T18:05:18;7.80;99.90
21815;DHT22;11069;48.988;8.450;2022-11-11T18:07:44;7.90;99.90
21815;DHT22;11069;48.988;8.450;2022-11-11T18:10:11;7.80;99.90
21815;DHT22;11069;48.988;8.450;2022-11-11T18:12:36;7.90;99.90
21815;DHT22;11069;48.988;8.450;2022-11-11T18:15:03;7.90;99.90
21815;DHT22;11069;48.988;8.450;2022-11-11T18:17:29;7.80;99.90
21815;DHT22;11069;48.988;8.450;2022-11-11T18:19:54;7.90;99.90
21815;DHT22;11069;48.988;8.450;2022-11-11T18:22:20;7.90;99.90
21815;DHT22;11069;48.988;8.450;2022-11-11T18:24:46;7.90;99.90
21815;DHT22;11069;48.988;8.450;2022-11-11T18:27:11;7.90;99.90
21815;DHT22;11069;48.988;8.450;2022-11-11T18:29:37;7.90;99.90
21815;DHT22;11069;48.988;8.450;2022-11-11T18:32:03;7.80;99.90
21815;DHT22;11069;48.988;8.450;2022-11-11T18:34:28;7.80;99.90
21815;DHT22;11069;48.988;8.450;2022-11-11T18:36:54;7.80;99.90
21815;DHT22;11069;48.988;8.450;2022-11-11T18:39:20;7.70;99.90
21815;DHT22;11069;48.988;8.450;2022-11-11T18:41:45;7.60;99.90
21815;DHT22;11069;48.988;8.450;2022-11-11T18:44:11;7.70;99.90
21815;DHT22;11069;48.988;8.450;2022-11-11T18:46:36;7.70;99.90
21815;DHT22;11069;48.988;8.450;2022-11-11T18:49:04;7.80;99.90
21815;DHT22;11069;48.988;8.450;2022-11-11T18:51:31;7.80;99.90
21815;DHT22;11069;48.988;8.450;2022-11-11T18:53:59;7.80;99.90
21815;DHT22;11069;48.988;8.450;2022-11-11T18:56:26;7.70;99.90
21815;DHT22;11069;48.988;8.450;2022-11-11T18:58:54;7.70;99.90